Time;durP1;ratioP1;P1;durP2;ratioP2;P2;SDS_P1;SDS_P2;PMS_P1;PMS_P2;Temp;Humidity;BMP_temperature;BMP_pressure;BME280_temperature;BME280_humidity;BME280_pressure;Samples;Min_cycle;Max_cycle;Signal;HPM_P1;HPM_P2
2022/07/21 00:07:42;;;;;;;18.83;17.20;;;;;26.80;99132.00;;;;16754433;28;20693;-44
2022/07/21 00:15:45;;;;;;;17.63;16.27;;;;;26.60;99153.00;;;;16747196;28;20271;-43
2022/07/21 00:23:49;;;;;;;20.63;18.67;;;;;26.60;99150.00;;;;16729236;28;20643;-43
2022/07/21 00:31:51;;;;;;;20.63;18.97;;;;;25.20;99173.00;;;;16741334;28;20244;-44
2022/07/21 00:39:55;;;;;;;18.10;16.57;;;;;25.30;99175.00;;;;16753857;28;20249;-43
2022/07/21 00:47:58;;;;;;;21.03;19.33;;;;;24.60;99146.00;;;;16753040;28;20210;-44
2022/07/21 00:56:02;;;;;;;19.03;17.43;;;;;24.60;99137.00;;;;16751351;28;20296;-44
2022/07/21 01:04:04;;;;;;;21.80;19.83;;;;;23.70;99154.00;;;;16743802;28;20740;-44
2022/07/21 01:12:09;;;;;;;24.10;21.73;;;;;23.20;99157.00;;;;16761697;28;20213;-44
2022/07/21 01:20:14;;;;;;;23.47;21.57;;;;;22.80;99187.00;;;;16756948;28;20225;-44
2022/07/21 01:28:18;;;;;;;18.43;16.93;;;;;24.90;99172.00;;;;16747213;28;20206;-44
2022/07/21 01:36:21;;;;;;;20.17;18.17;;;;;25.00;99172.00;;;;16686816;22;20784;-70
2022/07/21 01:44:24;;;;;;;18.83;17.33;;;;;25.60;99172.00;;;;16660408;28;20374;-70
2022/07/21 01:52:27;;;;;;;17.83;16.23;;;;;25.60;99200.00;;;;16663421;28;20273;-70
2022/07/21 02:00:31;;;;;;;17.17;15.67;;;;;26.50;99215.00;;;;16665574;28;20230;-70
2022/07/21 02:08:34;;;;;;;17.70;16.10;;;;;25.80;99216.00;;;;16664920;28;20206;-69
2022/07/21 02:16:37;;;;;;;18.30;16.70;;;;;26.50;99189.00;;;;16664576;28;20607;-68
2022/07/21 02:24:40;;;;;;;17.40;16.00;;;;;25.80;99192.00;;;;16658605;28;20234;-69
2022/07/21 02:32:44;;;;;;;19.40;17.53;;;;;26.90;99209.00;;;;16674057;28;20227;-69
2022/07/21 02:40:47;;;;;;;17.60;16.03;;;;;27.10;99220.00;;;;16655559;28;20222;-69
2022/07/21 02:48:51;;;;;;;14.23;13.10;;;;;27.40;99210.00;;;;16656332;28;20249;-67
2022/07/21 02:56:53;;;;;;;14.10;12.90;;;;;27.20;99201.00;;;;16667466;28;20226;-69
2022/07/21 03:04:57;;;;;;;12.30;11.30;;;;;26.70;99203.00;;;;16662402;28;20219;-69
2022/07/21 03:13:00;;;;;;;12.07;10.97;;;;;26.90;99202.00;;;;16660350;28;20761;-69
2022/07/21 03:21:04;;;;;;;11.90;11.10;;;;;26.90;99208.00;;;;16659748;28;20276;-68
2022/07/21 03:29:06;;;;;;;9.80;9.10;;;;;27.40;99229.00;;;;16657131;28;20198;-69
2022/07/21 03:37:10;;;;;;;12.40;10.27;;;;;27.10;99221.00;;;;16656883;28;21027;-69
2022/07/21 03:45:13;;;;;;;9.90;9.20;;;;;27.00;99229.00;;;;16660785;28;20214;-69
2022/07/21 03:53:17;;;;;;;10.17;9.37;;;;;26.70;99225.00;;;;16657196;28;20234;-69
2022/07/21 04:01:19;;;;;;;10.10;9.17;;;;;26.70;99248.00;;;;16658974;28;20697;-67
2022/07/21 04:09:23;;;;;;;10.93;9.97;;;;;25.30;99282.00;;;;16649900;28;20240;-67
2022/07/21 04:17:26;;;;;;;10.13;9.27;;;;;24.90;99270.00;;;;16652566;28;20272;-69
2022/07/21 04:25:30;;;;;;;11.63;10.43;;;;;26.00;99281.00;;;;16654903;28;20250;-69
2022/07/21 04:33:33;;;;;;;9.93;9.13;;;;;26.70;99268.00;;;;16660544;28;20312;-68
2022/07/21 04:41:36;;;;;;;12.07;11.00;;;;;24.60;99272.00;;;;16679670;28;20230;-67
2022/07/21 04:49:39;;;;;;;12.97;11.73;;;;;23.00;99297.00;;;;16685110;28;20214;-66
2022/07/21 04:57:45;;;;;;;13.67;12.43;;;;;23.20;99304.00;;;;16662536;22;20230;-46
2022/07/21 05:05:48;;;;;;;13.33;12.20;;;;;23.20;99294.00;;;;16649727;28;20692;-46
2022/07/21 05:13:52;;;;;;;12.93;11.33;;;;;23.20;99295.00;;;;16628407;28;20722;-45
2022/07/21 05:21:54;;;;;;;11.90;10.70;;;;;23.80;99288.00;;;;16634260;28;20230;-46
2022/07/21 05:29:58;;;;;;;12.03;10.87;;;;;24.20;99287.00;;;;16657627;28;20211;-46
2022/07/21 05:38:01;;;;;;;13.67;12.30;;;;;24.70;99281.00;;;;16653660;28;20234;-46
2022/07/21 05:46:05;;;;;;;12.13;10.87;;;;;24.40;99297.00;;;;16641667;28;20226;-47
2022/07/21 05:54:07;;;;;;;13.90;12.90;;;;;23.40;99311.00;;;;16618109;28;20255;-48
2022/07/21 06:02:11;;;;;;;11.10;10.20;;;;;23.90;99330.00;;;;16613463;28;20230;-46
2022/07/21 06:10:14;;;;;;;13.80;12.60;;;;;26.40;99323.00;;;;16626740;28;20226;-45
2022/07/21 06:18:18;;;;;;;11.80;10.80;;;;;27.30;99324.00;;;;16615337;28;20222;-46
2022/07/21 06:26:21;;;;;;;11.17;10.17;;;;;27.00;99324.00;;;;16657613;28;20222;-46
2022/07/21 06:34:25;;;;;;;11.57;10.40;;;;;26.90;99328.00;;;;16626382;28;20293;-46
2022/07/21 06:42:27;;;;;;;12.47;11.20;;;;;26.60;99328.00;;;;16604152;28;20306;-47
2022/07/21 06:50:31;;;;;;;11.00;9.70;;;;;26.90;99336.00;;;;16593972;28;20219;-46
2022/07/21 06:58:34;;;;;;;11.47;10.37;;;;;25.60;99336.00;;;;16623586;28;20476;-48
2022/07/21 07:06:38;;;;;;;10.70;9.90;;;;;24.40;99341.00;;;;16623242;28;20306;-48
2022/07/21 07:14:40;;;;;;;9.80;8.67;;;;;25.10;99334.00;;;;16629023;28;20615;-48
2022/07/21 07:22:44;;;;;;;10.83;9.93;;;;;25.00;99337.00;;;;16645721;28;20265;-48
2022/07/21 07:30:48;;;;;;;10.10;9.40;;;;;24.90;99346.00;;;;16650393;28;20762;-49
2022/07/21 07:38:52;;;;;;;10.13;9.27;;;;;25.20;99349.00;;;;16631486;28;20481;-47
2022/07/21 07:46:54;;;;;;;9.83;9.13;;;;;25.10;99350.00;;;;16632906;28;20701;-49
2022/07/21 07:54:58;;;;;;;10.30;9.40;;;;;25.00;99340.00;;;;16652350;28;20982;-48
2022/07/21 08:03:01;;;;;;;8.50;7.83;;;;;25.00;99348.00;;;;16623289;28;20577;-47
2022/07/21 08:11:05;;;;;;;10.40;9.50;;;;;25.40;99340.00;;;;16641210;28;20702;-49
2022/07/21 08:19:07;;;;;;;9.20;8.57;;;;;26.90;99342.00;;;;16641868;28;20265;-49
2022/07/21 08:27:11;;;;;;;8.70;7.90;;;;;25.80;99334.00;;;;16636102;28;20713;-48
2022/07/21 08:35:14;;;;;;;9.50;8.70;;;;;25.70;99335.00;;;;16636472;28;20703;-49
2022/07/21 08:43:21;;;;;;;10.73;9.67;;;;;26.30;99338.00;;;;16668188;23;20339;-48
2022/07/21 08:51:24;;;;;;;9.47;8.50;;;;;26.00;99333.00;;;;16652000;28;20409;-49
2022/07/21 08:59:28;;;;;;;9.33;8.63;;;;;27.90;99320.00;;;;16657256;28;20310;-50
2022/07/21 09:07:32;;;;;;;8.20;7.60;;;;;26.10;99331.00;;;;16653573;28;20210;-48
2022/07/21 09:15:38;;;;;;;9.10;8.30;;;;;26.20;99326.00;;;;16656166;28;20223;-49
2022/07/21 09:23:41;;;;;;;8.13;7.33;;;;;26.70;99318.00;;;;16666940;28;20225;-50
2022/07/21 09:31:45;;;;;;;7.43;6.90;;;;;26.50;99326.00;;;;16655189;28;20221;-49
2022/07/21 09:39:49;;;;;;;7.10;6.60;;;;;26.40;99325.00;;;;16664693;28;20223;-48
2022/07/21 09:47:53;;;;;;;7.73;7.13;;;;;26.40;99315.00;;;;16656482;28;20199;-49
2022/07/21 09:55:56;;;;;;;7.80;7.20;;;;;28.00;99321.00;;;;16684409;28;20202;-49
2022/07/21 10:04:00;;;;;;;7.40;6.80;;;;;28.50;99306.00;;;;16675616;28;20276;-49
2022/07/21 10:12:03;;;;;;;6.90;6.30;;;;;28.60;99299.00;;;;16651705;28;20318;-49
2022/07/21 10:20:12;;;;;;;6.97;6.30;;;;;30.10;99289.00;;;;16663846;28;20250;-50
2022/07/21 10:28:18;;;;;;;6.80;6.20;;;;;28.90;99283.00;;;;16671821;28;20580;-49
2022/07/21 10:36:46;;;;;;;6.20;5.70;;;;;29.20;99271.00;;;;16633650;28;20196;-49
2022/07/21 10:44:49;;;;;;;5.73;5.33;;;;;29.10;99261.00;;;;16606428;28;20237;-49
2022/07/21 10:53:00;;;;;;;5.70;5.20;;;;;29.30;99264.00;;;;16607572;28;20219;-49
2022/07/21 11:01:05;;;;;;;6.10;5.60;;;;;29.60;99252.00;;;;16653878;28;20231;-49
2022/07/21 11:09:20;;;;;;;5.00;4.60;;;;;29.70;99250.00;;;;16637023;28;20698;-49
2022/07/21 11:17:29;;;;;;;5.80;5.30;;;;;30.70;99243.00;;;;16621921;28;20250;-49
2022/07/21 11:25:35;;;;;;;6.53;4.17;;;;;30.20;99245.00;;;;16624968;28;20706;-49
2022/07/21 11:33:38;;;;;;;5.60;5.20;;;;;30.40;99247.00;;;;16633157;28;20249;-49
2022/07/21 11:41:43;;;;;;;5.10;4.60;;;;;31.50;99240.00;;;;16632456;28;20364;-49
2022/07/21 11:49:45;;;;;;;5.53;4.80;;;;;34.90;99226.00;;;;16642552;28;20269;-50
2022/07/21 11:57:49;;;;;;;5.23;4.73;;;;;32.50;99223.00;;;;16649948;28;20268;-49
2022/07/21 12:05:52;;;;;;;4.60;4.20;;;;;32.70;99221.00;;;;16642192;28;20199;-49
2022/07/21 12:13:58;;;;;;;6.07;5.43;;;;;33.50;99211.00;;;;16643151;28;20251;-49
2022/07/21 12:22:00;;;;;;;5.47;4.83;;;;;32.00;99208.00;;;;16648624;28;20384;-49
2022/07/21 12:30:05;;;;;;;5.13;4.70;;;;;32.20;99217.00;;;;16631144;28;20274;-49
2022/07/21 12:38:10;;;;;;;5.23;4.83;;;;;34.20;99209.00;;;;16633463;28;20234;-49
2022/07/21 12:46:17;;;;;;;4.80;4.37;;;;;34.80;99206.00;;;;16646585;28;20215;-49
2022/07/21 12:54:20;;;;;;;7.20;6.60;;;;;30.60;99218.00;;;;16619521;28;20231;-49
2022/07/21 13:02:24;;;;;;;8.80;8.10;;;;;29.60;99232.00;;;;16640137;28;20726;-49
2022/07/21 13:10:26;;;;;;;7.87;7.17;;;;;32.30;99222.00;;;;16642662;28;20270;-50
2022/07/21 13:18:30;;;;;;;10.37;6.83;;;;;34.90;99218.00;;;;16627176;28;20226;-49
2022/07/21 13:26:33;;;;;;;7.63;6.83;;;;;35.20;99210.00;;;;16620431;28;20352;-50
2022/07/21 13:34:36;;;;;;;7.40;6.83;;;;;34.80;99212.00;;;;16631898;28;20218;-50
2022/07/21 13:42:39;;;;;;;7.47;6.70;;;;;31.90;99199.00;;;;16653501;28;20586;-49
2022/07/21 13:50:43;;;;;;;6.77;6.30;;;;;31.60;99205.00;;;;16643809;28;20562;-49
2022/07/21 13:58:46;;;;;;;8.00;7.17;;;;;30.20;99209.00;;;;16657492;28;20227;-49
2022/07/21 14:06:50;;;;;;;7.43;6.93;;;;;30.20;99216.00;;;;16678197;28;20611;-49
2022/07/21 14:14:52;;;;;;;7.70;7.20;;;;;31.60;99191.00;;;;16667642;28;20218;-50
2022/07/21 14:22:56;;;;;;;7.37;6.80;;;;;32.10;99189.00;;;;16663155;28;20237;-50
2022/07/21 14:30:59;;;;;;;6.77;5.63;;;;;35.10;99193.00;;;;16675854;28;20221;-50
2022/07/21 14:39:04;;;;;;;6.43;5.93;;;;;31.00;99188.00;;;;16659648;28;20351;-49
2022/07/21 14:47:06;;;;;;;6.17;5.77;;;;;30.70;99190.00;;;;16675230;22;20603;-49
2022/07/21 14:55:11;;;;;;;6.80;6.30;;;;;30.60;99182.00;;;;16659026;28;20218;-49
2022/07/21 15:03:15;;;;;;;7.00;5.83;;;;;30.50;99186.00;;;;16648073;28;20223;-48
2022/07/21 15:11:19;;;;;;;5.80;5.40;;;;;30.50;99181.00;;;;16648482;28;20526;-49
2022/07/21 15:19:21;;;;;;;6.63;6.13;;;;;30.60;99185.00;;;;16647559;28;20245;-48
2022/07/21 15:27:25;;;;;;;7.10;6.50;;;;;31.20;99184.00;;;;16647739;28;20302;-50
2022/07/21 15:35:28;;;;;;;5.87;5.37;;;;;31.10;99174.00;;;;16634095;28;20296;-47
2022/07/21 15:43:32;;;;;;;6.20;5.70;;;;;30.20;99174.00;;;;16643813;28;20350;-50
2022/07/21 15:51:34;;;;;;;8.10;5.40;;;;;31.20;99169.00;;;;16635730;28;20250;-48
2022/07/21 15:59:38;;;;;;;6.13;5.60;;;;;31.60;99165.00;;;;16636389;28;20269;-49
2022/07/21 16:07:41;;;;;;;5.30;4.83;;;;;30.70;99149.00;;;;16638899;28;20345;-47
2022/07/21 16:15:45;;;;;;;5.33;4.93;;;;;31.70;99147.00;;;;16640375;28;20229;-49
2022/07/21 16:23:47;;;;;;;5.40;5.00;;;;;32.50;99140.00;;;;16642762;28;20242;-49
2022/07/21 16:31:51;;;;;;;5.00;4.60;;;;;32.70;99144.00;;;;16637962;28;20707;-49
2022/07/21 16:39:54;;;;;;;4.60;4.30;;;;;34.00;99140.00;;;;16656338;28;20211;-49
2022/07/21 16:47:57;;;;;;;5.10;4.70;;;;;34.20;99131.00;;;;16650604;28;20862;-49
2022/07/21 16:56:00;;;;;;;5.80;5.40;;;;;32.20;99119.00;;;;16655727;28;20218;-49
2022/07/21 17:04:04;;;;;;;5.90;5.33;;;;;32.20;99137.00;;;;16652382;28;20250;-49
2022/07/21 17:12:07;;;;;;;6.87;4.63;;;;;31.60;99129.00;;;;16653059;28;20304;-49
2022/07/21 17:20:12;;;;;;;5.40;5.00;;;;;30.50;99136.00;;;;16659296;28;20595;-49
2022/07/21 17:28:15;;;;;;;5.93;5.37;;;;;31.80;99133.00;;;;16652870;28;20728;-49
2022/07/21 17:36:19;;;;;;;5.53;5.10;;;;;32.70;99132.00;;;;16652321;28;20512;-49
2022/07/21 17:44:22;;;;;;;6.80;6.10;;;;;32.00;99127.00;;;;16652259;28;20300;-49
2022/07/21 17:52:25;;;;;;;6.13;5.63;;;;;34.00;99135.00;;;;16649794;28;20263;-49
2022/07/21 18:00:29;;;;;;;6.03;5.20;;;;;31.40;99134.00;;;;16648431;28;20261;-49
2022/07/21 18:08:33;;;;;;;6.13;5.63;;;;;31.30;99137.00;;;;16651434;28;20778;-48
2022/07/21 18:16:35;;;;;;;6.33;5.83;;;;;31.10;99139.00;;;;16649374;28;20734;-49
2022/07/21 18:24:39;;;;;;;6.17;5.57;;;;;30.20;99139.00;;;;16652111;28;20299;-49
2022/07/21 18:32:42;;;;;;;7.23;6.17;;;;;29.30;99136.00;;;;16650602;28;20215;-48
2022/07/21 18:40:46;;;;;;;5.90;5.40;;;;;28.80;99155.00;;;;16646558;28;20223;-49
2022/07/21 18:48:49;;;;;;;6.00;5.50;;;;;28.50;99149.00;;;;16642183;28;20701;-48
2022/07/21 18:56:52;;;;;;;5.43;5.03;;;;;28.30;99152.00;;;;16632693;28;20222;-48
2022/07/21 19:04:55;;;;;;;5.60;5.10;;;;;28.10;99159.00;;;;16646036;28;20309;-48
2022/07/21 19:12:59;;;;;;;7.17;6.47;;;;;26.80;99169.00;;;;16646162;28;20346;-49
2022/07/21 19:21:01;;;;;;;7.30;6.50;;;;;26.10;99183.00;;;;16645182;28;20233;-48
2022/07/21 19:29:05;;;;;;;7.03;6.50;;;;;25.40;99186.00;;;;16638846;28;20203;-48
2022/07/21 19:37:08;;;;;;;7.33;6.67;;;;;25.40;99209.00;;;;16644883;28;20703;-48
2022/07/21 19:45:12;;;;;;;7.73;5.77;;;;;24.70;99206.00;;;;16644603;28;20303;-49
2022/07/21 19:53:15;;;;;;;10.33;8.47;;;;;24.30;99205.00;;;;16641902;28;20245;-48
2022/07/21 20:01:19;;;;;;;7.47;6.87;;;;;24.30;99210.00;;;;16637879;28;20606;-47
2022/07/21 20:09:21;;;;;;;8.37;6.50;;;;;24.10;99220.00;;;;16639723;28;20667;-48
2022/07/21 20:17:26;;;;;;;8.27;6.70;;;;;23.90;99213.00;;;;16639806;28;20280;-50
2022/07/21 20:25:30;;;;;;;7.77;7.10;;;;;23.70;99220.00;;;;16634229;28;20229;-49
2022/07/21 20:33:34;;;;;;;6.57;5.97;;;;;23.30;99217.00;;;;16639387;28;20215;-48
2022/07/21 20:49:45;;;;;;;8.50;7.00;;;;;24.00;99217.00;;;;16683669;28;20545;-46
2022/07/21 20:57:47;;;;;;;7.60;6.70;;;;;23.60;99222.00;;;;16696838;28;20542;-47
2022/07/21 21:05:51;;;;;;;7.70;7.00;;;;;23.90;99230.00;;;;16682160;28;20226;-47
2022/07/21 21:13:54;;;;;;;9.03;7.70;;;;;23.30;99222.00;;;;16677729;28;20599;-47
2022/07/21 21:21:58;;;;;;;8.53;7.50;;;;;23.20;99223.00;;;;16691459;28;20344;-46
2022/07/21 21:30:00;;;;;;;7.83;7.13;;;;;22.90;99220.00;;;;16685240;28;20206;-47
2022/07/21 21:38:04;;;;;;;8.57;7.87;;;;;23.60;99228.00;;;;16691351;28;20226;-45
2022/07/21 21:46:08;;;;;;;7.97;7.27;;;;;23.20;99217.00;;;;16710028;28;20222;-47
2022/07/21 21:54:13;;;;;;;8.60;7.90;;;;;23.40;99223.00;;;;16711508;28;20913;-46
2022/07/21 22:02:16;;;;;;;7.93;7.23;;;;;22.50;99224.00;;;;16706578;28;20221;-46
2022/07/21 22:10:20;;;;;;;8.60;7.80;;;;;23.10;99221.00;;;;16687115;28;20205;-48
2022/07/21 22:18:22;;;;;;;8.43;7.73;;;;;22.90;99235.00;;;;16696984;28;20226;-47
2022/07/21 22:26:26;;;;;;;9.20;8.30;;;;;22.30;99230.00;;;;16703791;28;20232;-46
2022/07/21 22:34:29;;;;;;;8.47;7.77;;;;;23.20;99222.00;;;;16712234;28;20225;-47
2022/07/21 22:42:33;;;;;;;9.40;8.50;;;;;22.30;99222.00;;;;16703817;28;20249;-46
2022/07/21 22:50:36;;;;;;;8.53;7.70;;;;;22.70;99235.00;;;;16699899;28;20202;-46
2022/07/21 22:58:40;;;;;;;8.90;8.10;;;;;22.70;99233.00;;;;16702622;28;20272;-48
2022/07/21 23:06:42;;;;;;;9.63;8.73;;;;;22.50;99231.00;;;;16684138;28;20225;-46
2022/07/21 23:14:46;;;;;;;8.97;8.27;;;;;23.10;99227.00;;;;16681026;28;20236;-47
2022/07/21 23:22:49;;;;;;;8.00;7.40;;;;;22.60;99226.00;;;;16677033;28;20308;-46
2022/07/21 23:30:53;;;;;;;9.40;8.50;;;;;22.80;99223.00;;;;16675633;28;20293;-46
2022/07/21 23:38:55;;;;;;;9.77;8.90;;;;;22.30;99224.00;;;;16679291;28;20386;-46
2022/07/21 23:46:59;;;;;;;9.10;8.20;;;;;22.80;99212.00;;;;16669068;28;20233;-47
2022/07/21 23:55:02;;;;;;;9.63;8.63;;;;;22.20;99217.00;;;;16680308;28;20302;-46
